createdAt,value
2023-10-03T00:03:04.000Z,93962.87
2023-10-03T00:08:03.000Z,93962.87
2023-10-03T00:13:03.000Z,93960.63
2023-10-03T00:18:03.000Z,93960.63
2023-10-03T00:23:02.000Z,93972.17
2023-10-03T00:28:03.000Z,93981.41
2023-10-03T00:33:03.000Z,93981.41
2023-10-03T00:38:03.000Z,93988.05
2023-10-03T00:43:04.000Z,93988.05
2023-10-03T00:48:03.000Z,93976.73
2023-10-03T00:53:03.000Z,93976.73
2023-10-03T00:58:03.000Z,93972.02
2023-10-03T01:03:04.000Z,93984.92
2023-10-03T01:08:04.000Z,93984.92
2023-10-03T01:13:03.000Z,93995.56
2023-10-03T01:18:04.000Z,93995.56
2023-10-03T01:23:02.000Z,94008.24
2023-10-03T01:28:03.000Z,94008.24
2023-10-03T01:33:03.000Z,94013.7
2023-10-03T01:38:03.000Z,94013.7
2023-10-03T01:43:03.000Z,94014.81
2023-10-03T01:48:03.000Z,94014.81
2023-10-03T01:53:03.000Z,94028.11
2023-10-03T01:58:03.000Z,94028.11
2023-10-03T02:03:03.000Z,94028.03
2023-10-03T02:08:03.000Z,94033.7
2023-10-03T02:13:03.000Z,94033.7
2023-10-03T02:18:03.000Z,94035.37
2023-10-03T02:23:02.000Z,94042.06
2023-10-03T02:28:03.000Z,94045.74
2023-10-03T02:33:03.000Z,94045.74
2023-10-03T02:38:02.000Z,94054.48
2023-10-03T02:43:04.000Z,94054.48
2023-10-03T02:48:03.000Z,94048.09
2023-10-03T02:53:03.000Z,94048.09
2023-10-03T02:58:02.000Z,94045.67
2023-10-03T03:03:04.000Z,94045.67
2023-10-03T03:08:03.000Z,94042.92
2023-10-03T03:13:03.000Z,94042.92
2023-10-03T03:18:03.000Z,94051
2023-10-03T03:23:03.000Z,94049.71
2023-10-03T03:28:04.000Z,94049.71
2023-10-03T03:33:03.000Z,94043.43
2023-10-03T03:38:03.000Z,94043.43
2023-10-03T03:43:04.000Z,94041.74
2023-10-03T03:48:04.000Z,94043.78
2023-10-03T03:53:03.000Z,94043.78
2023-10-03T03:58:02.000Z,94049.43
2023-10-03T04:03:02.000Z,94048.93
2023-10-03T04:08:03.000Z,94048.93
2023-10-03T04:13:03.000Z,94050.72
2023-10-03T04:18:04.000Z,94050.72
2023-10-03T04:23:04.000Z,94049.4
2023-10-03T04:28:02.000Z,94040.55
2023-10-03T04:33:04.000Z,94040.55
2023-10-03T04:38:02.000Z,94036.99
2023-10-03T04:43:03.000Z,94040.44
2023-10-03T04:48:03.000Z,94040.44
2023-10-03T04:53:03.000Z,94039.39
2023-10-03T04:58:03.000Z,94039.39
2023-10-03T05:03:04.000Z,94033.62
2023-10-03T05:08:03.000Z,94033.62
2023-10-03T05:13:02.000Z,94024.92
2023-10-03T05:18:03.000Z,94024.92
2023-10-03T05:23:04.000Z,94023.1
2023-10-03T05:28:02.000Z,94016.52
2023-10-03T05:33:03.000Z,94016.52
2023-10-03T05:38:02.000Z,94016.3
2023-10-03T05:43:03.000Z,94016.71
2023-10-03T05:48:03.000Z,94016.71
2023-10-03T05:53:03.000Z,94014.88
2023-10-03T05:58:03.000Z,94014.88
2023-10-03T06:03:04.000Z,94012.92
2023-10-03T06:08:02.000Z,94012.92
2023-10-03T06:13:03.000Z,94001.81
2023-10-03T06:18:03.000Z,93999.68
2023-10-03T06:23:03.000Z,93999.68
2023-10-03T06:28:03.000Z,93999.97
2023-10-03T06:33:04.000Z,93999.97
2023-10-03T06:38:03.000Z,94000.87
2023-10-03T06:43:03.000Z,94000.87
2023-10-03T06:48:03.000Z,93994.88
2023-10-03T06:53:03.000Z,93994.88
2023-10-03T06:58:03.000Z,93983.38
2023-10-03T07:03:03.000Z,93974.89
2023-10-03T07:08:04.000Z,93974.89
2023-10-03T07:13:03.000Z,93965.82
2023-10-03T07:18:03.000Z,93965.82
2023-10-03T07:23:04.000Z,93955.7
2023-10-03T07:28:03.000Z,93949.91
2023-10-03T07:33:03.000Z,93949.91
2023-10-03T07:38:03.000Z,93945.61
2023-10-03T07:43:03.000Z,93945.61
2023-10-03T07:48:03.000Z,93942.57
2023-10-03T07:53:05.000Z,93942.57
2023-10-03T07:58:03.000Z,93935.39
2023-10-03T08:03:03.000Z,93935.39
2023-10-03T08:08:03.000Z,93925.12
2023-10-03T08:13:03.000Z,93924.82
2023-10-03T08:18:03.000Z,93924.82
2023-10-03T08:23:03.000Z,93918.89
2023-10-03T08:28:03.000Z,93918.89
2023-10-03T08:33:03.000Z,93917.83
2023-10-03T08:38:03.000Z,93915.99
2023-10-03T08:43:04.000Z,93915.99
2023-10-03T08:48:03.000Z,93914.29
2023-10-03T08:53:03.000Z,93914.29
2023-10-03T08:58:02.000Z,93918.77
2023-10-03T09:03:04.000Z,93914.84
2023-10-03T09:08:03.000Z,93914.84
2023-10-03T09:13:03.000Z,93923.7
2023-10-03T09:18:03.000Z,93923.7
2023-10-03T09:23:04.000Z,93922.19
2023-10-03T09:28:02.000Z,93925.25
2023-10-03T09:33:03.000Z,93925.25
2023-10-03T09:38:03.000Z,93929.76
2023-10-03T09:43:03.000Z,93929.76
2023-10-03T09:48:03.000Z,93936.78
2023-10-03T09:53:06.000Z,93941.77
2023-10-03T09:58:03.000Z,93941.77
2023-10-03T10:03:03.000Z,93949.19
2023-10-03T10:08:03.000Z,93949.19
2023-10-03T10:13:03.000Z,93955.9
2023-10-03T10:18:03.000Z,93963.77
2023-10-03T10:23:03.000Z,93963.77
2023-10-03T10:28:03.000Z,93962.06
2023-10-03T10:33:03.000Z,93969.83
2023-10-03T10:38:03.000Z,93969.83
2023-10-03T10:43:03.000Z,93971.49
2023-10-03T10:48:03.000Z,93971.49
2023-10-03T10:53:03.000Z,93978.75
2023-10-03T10:58:03.000Z,93989.08
2023-10-03T11:03:03.000Z,93989.08
2023-10-03T11:08:03.000Z,93986.74
2023-10-03T11:13:03.000Z,93989.14
2023-10-03T11:18:03.000Z,93989.14
2023-10-03T11:23:02.000Z,93993.41
2023-10-03T11:28:04.000Z,93997.99
2023-10-03T11:33:03.000Z,93997.99
2023-10-03T11:38:03.000Z,94005.99
2023-10-03T11:43:03.000Z,94005.99
2023-10-03T11:48:03.000Z,94012.02
2023-10-03T11:53:03.000Z,94012.02
2023-10-03T11:58:03.000Z,94021.56
2023-10-03T12:03:04.000Z,94021.56
2023-10-03T12:08:02.000Z,94029.2
2023-10-03T12:13:03.000Z,94029.2
2023-10-03T12:18:04.000Z,94036.37
2023-10-03T12:23:02.000Z,94044.11
2023-10-03T12:28:03.000Z,94044.11
2023-10-03T12:33:03.000Z,94055.98
2023-10-03T12:38:04.000Z,94066.88
2023-10-03T12:43:03.000Z,94066.88
2023-10-03T12:48:03.000Z,94074.49
2023-10-03T12:53:04.000Z,94074.49
2023-10-03T12:58:03.000Z,94086.09
2023-10-03T13:03:04.000Z,94089.66
2023-10-03T13:08:02.000Z,94096.85
2023-10-03T13:13:03.000Z,94096.85
2023-10-03T13:18:04.000Z,94105.7
2023-10-03T13:23:02.000Z,94105.7
2023-10-03T13:28:02.000Z,94111.88
2023-10-03T13:33:03.000Z,94114.62
2023-10-03T13:38:03.000Z,94114.62
2023-10-03T13:43:03.000Z,94122.84
2023-10-03T13:48:03.000Z,94128.64
2023-10-03T13:53:03.000Z,94128.64
2023-10-03T13:58:03.000Z,94129.31
2023-10-03T14:03:03.000Z,94131.26
2023-10-03T14:08:03.000Z,94131.26
2023-10-03T14:13:04.000Z,94139.42
2023-10-03T14:18:04.000Z,94139.42
2023-10-03T14:23:03.000Z,94146.65
2023-10-03T14:28:04.000Z,94146.65
2023-10-03T14:33:04.000Z,94155.91
2023-10-03T14:38:03.000Z,94155.91
2023-10-03T14:43:03.000Z,94162.4
2023-10-03T14:48:06.000Z,94162.4
2023-10-03T14:53:03.000Z,94167.46
2023-10-03T14:58:04.000Z,94173.25
2023-10-03T15:03:04.000Z,94173.25
2023-10-03T15:08:03.000Z,94176.41
2023-10-03T15:13:03.000Z,94176.41
2023-10-03T15:18:04.000Z,94179.15
2023-10-03T15:23:03.000Z,94179.15
2023-10-03T15:28:04.000Z,94183.17
2023-10-03T15:33:03.000Z,94195.23
2023-10-03T15:38:03.000Z,94202.48
2023-10-03T15:43:03.000Z,94202.48
2023-10-03T15:48:03.000Z,94202.97
2023-10-03T15:53:03.000Z,94204.44
2023-10-03T15:58:03.000Z,94204.44
2023-10-03T16:03:03.000Z,94203.23
2023-10-03T16:08:03.000Z,94203.23
2023-10-03T16:13:03.000Z,94200.67
2023-10-03T16:18:03.000Z,94200.67
2023-10-03T16:23:03.000Z,94195.37
2023-10-03T16:28:03.000Z,94197.44
2023-10-03T16:33:03.000Z,94197.44
2023-10-03T16:38:03.000Z,94199.63
2023-10-03T16:43:02.000Z,94199.63
2023-10-03T16:48:04.000Z,94199.31
2023-10-03T16:53:03.000Z,94199.31
2023-10-03T16:58:03.000Z,94196.67
2023-10-03T17:03:03.000Z,94196.83
2023-10-03T17:08:04.000Z,94188.16
2023-10-03T17:13:03.000Z,94188.16
2023-10-03T17:18:03.000Z,94189.25
2023-10-03T17:23:02.000Z,94189.25
2023-10-03T17:28:03.000Z,94196.78
2023-10-03T17:33:03.000Z,94196.78
2023-10-03T17:38:03.000Z,94195.46
2023-10-03T17:43:03.000Z,94195.46
2023-10-03T17:48:04.000Z,94194.48
2023-10-03T17:53:02.000Z,94193.2
2023-10-03T17:58:02.000Z,94193.2
2023-10-03T18:08:03.000Z,94190.7
2023-10-03T18:13:03.000Z,94190.7
2023-10-03T18:18:03.000Z,94188.36
2023-10-03T18:23:03.000Z,94191.78
2023-10-03T18:28:03.000Z,94191.78
2023-10-03T18:33:04.000Z,94190.59
2023-10-03T18:38:04.000Z,94183.1
2023-10-03T18:43:03.000Z,94183.1
2023-10-03T18:48:04.000Z,94180.96
2023-10-03T18:53:03.000Z,94183.48
2023-10-03T18:58:02.000Z,94183.48
2023-10-03T19:03:04.000Z,94185.49
2023-10-03T19:08:03.000Z,94185.49
2023-10-03T19:13:04.000Z,94187.26
2023-10-03T19:18:04.000Z,94187.26
2023-10-03T19:23:03.000Z,94187.27
2023-10-03T19:28:03.000Z,94187.27
2023-10-03T19:33:02.000Z,94194.41
2023-10-03T19:38:03.000Z,94198.71
2023-10-03T19:43:04.000Z,94198.71
2023-10-03T19:48:03.000Z,94199.7
2023-10-03T19:53:03.000Z,94199.7
2023-10-03T19:58:03.000Z,94208.02
2023-10-03T20:03:03.000Z,94208.02
2023-10-03T20:08:03.000Z,94211.51
2023-10-03T20:13:02.000Z,94211.51
2023-10-03T20:18:03.000Z,94218.32
2023-10-03T20:23:03.000Z,94218.32
2023-10-03T20:28:02.000Z,94215.38
2023-10-03T20:33:04.000Z,94215.38
2023-10-03T20:38:03.000Z,94212.89
2023-10-03T20:43:03.000Z,94212.89
2023-10-03T20:48:03.000Z,94213.23
2023-10-03T20:53:03.000Z,94205.79
2023-10-03T20:58:02.000Z,94200.12
2023-10-03T21:03:03.000Z,94200.12
2023-10-03T21:08:03.000Z,94194.46
2023-10-03T21:13:03.000Z,94194.46
2023-10-03T21:18:02.000Z,94191.91
2023-10-03T21:23:03.000Z,94191.91
2023-10-03T21:28:02.000Z,94190.44
2023-10-03T21:33:02.000Z,94190.44
2023-10-03T21:38:03.000Z,94195.06
2023-10-03T21:43:04.000Z,94195.06
2023-10-03T21:48:03.000Z,94195.85
2023-10-03T21:53:02.000Z,94195.85
2023-10-03T21:58:03.000Z,94201.81
2023-10-03T22:03:03.000Z,94200.61
2023-10-03T22:08:02.000Z,94200.61
2023-10-03T22:13:03.000Z,94200.98
2023-10-03T22:18:03.000Z,94202.17
2023-10-03T22:23:03.000Z,94202.17
2023-10-03T22:28:03.000Z,94215.49
2023-10-03T22:33:04.000Z,94211.1
2023-10-03T22:38:19.000Z,94211.1
2023-10-03T22:43:02.000Z,94219.24
2023-10-03T22:48:04.000Z,94219.24
2023-10-03T22:53:03.000Z,94223.5
2023-10-03T22:58:02.000Z,94223.5
2023-10-03T23:03:02.000Z,94224.62
2023-10-03T23:08:03.000Z,94224.62
2023-10-03T23:13:03.000Z,94227.72
2023-10-03T23:18:03.000Z,94227.72
2023-10-03T23:23:03.000Z,94230.54
2023-10-03T23:28:03.000Z,94230.54
2023-10-03T23:33:03.000Z,94229.83
2023-10-03T23:38:03.000Z,94230.5
2023-10-03T23:43:02.000Z,94230.5
2023-10-03T23:48:04.000Z,94230.84
2023-10-03T23:53:02.000Z,94235.12
2023-10-03T23:58:03.000Z,94235.12
